M I D A S
Marine Information and Data Acquisition System
Tripno 806 of the Zeeleeuw from 2004-11-18 10:02:50 to 2004-11-18 14:23:46
Back to CruiseResearch ActivitiesStationsMapUnderway DataData graphs

EquipmentUnitsComment
TimeDGPSUTC
LatitudeDGPSDM.mWGS84
LongitudeDGPSDM.mWGS84
HeadingGyrodeg 
SOGDGPSknotsSpeed over ground
COGDGPSdegCourse over ground
DepthEcho soundermeters200 kHz
Missing or incorrect values are displayed as -999
Navigation data collected by the RV Zeeleeuw from 2004-11-18 10:02:50 to 2004-11-18 14:23:46
                                                                                    Next 1000 lines
Time Latitude Longitude Heading SOG COG Depth
2004-11-18 10:03:03 51°22.589 3°13.154 47.6 0.9 311 12.5
2004-11-18 10:03:06 51°22.589 3°13.152 45.2 0.9 311 12.5
2004-11-18 10:03:13 51°22.59 3°13.15 44.1 0.5 293 12.7
2004-11-18 10:03:15 51°22.59 3°13.149 42.5 0.6 282 12.9
2004-11-18 10:03:40 51°22.591 3°13.143 37.9 1 287 12.8
2004-11-18 10:03:46 51°22.591 3°13.14 36.1 0.6 289 12.8
2004-11-18 10:03:50 51°22.591 3°13.14 35.9 1 281 12.6
2004-11-18 10:03:56 51°22.591 3°13.137 35.1 1 281 12.4
2004-11-18 10:04:00 51°22.591 3°13.136 33.9 1.4 287 12.8
2004-11-18 10:04:06 51°22.591 3°13.133 31.5 1.4 284 12.9
2004-11-18 10:04:11 51°22.591 3°13.131 31 1.3 284 13.1
2004-11-18 10:04:16 51°22.591 3°13.13 29.8 1.5 282 13.2
2004-11-18 10:04:20 51°22.592 3°13.127 28.9 1.5 281 13.2
2004-11-18 10:04:26 51°22.591 3°13.125 28.2 1.2 277 13.3
2004-11-18 10:04:31 51°22.592 3°13.122 28.2 0.9 274 13.1
2004-11-18 10:04:36 51°22.592 3°13.119 27.7 1.2 270 12.7
2004-11-18 10:04:41 51°22.592 3°13.118 28.4 0.6 248 12.7
2004-11-18 10:04:46 51°22.592 3°13.116 28.1 0.8 260 12.7
2004-11-18 10:04:51 51°22.592 3°13.113 27.7 1.1 265 12.6
2004-11-18 10:04:56 51°22.592 3°13.11 27.5 1.2 272 12.6
2004-11-18 10:05:00 51°22.592 3°13.108 27.1 0.8 259 12.6
2004-11-18 10:05:06 51°22.591 3°13.106 27.3 0.9 270 12.5
2004-11-18 10:05:10 51°22.592 3°13.104 26.1 0.9 270 12.5
2004-11-18 10:05:16 51°22.591 3°13.102 26.8 0.6 261 12.6
2004-11-18 10:05:20 51°22.592 3°13.099 25.6 0.6 261 12.5
2004-11-18 10:05:26 51°22.591 3°13.098 25.6 0.4 233 12.8
2004-11-18 10:05:30 51°22.591 3°13.095 25.8 0.7 263 12.6
2004-11-18 10:05:36 51°22.591 3°13.092 25.8 0.6 233 12.6
2004-11-18 10:05:42 51°22.59 3°13.091 26.7 0.8 247 12.7
2004-11-18 10:05:46 51°22.59 3°13.089 25.9 1.1 272 12.7
2004-11-18 10:05:51 51°22.59 3°13.087 26.7 0.9 241 12.6
2004-11-18 10:05:56 51°22.59 3°13.084 28.2 0.8 266 12.3
2004-11-18 10:06:01 51°22.59 3°13.082 29.8 0.8 250 12.2
2004-11-18 10:06:12 51°22.59 3°13.078 29.7 1.1 262 12.4
2004-11-18 10:06:16 51°22.589 3°13.076 29.7 1.1 262 12.7
2004-11-18 10:06:22 51°22.589 3°13.074 30.4 1.1 269 12.9
2004-11-18 10:06:26 51°22.589 3°13.072 30.3 0.8 263 13
2004-11-18 10:06:31 51°22.589 3°13.07 30.4 1 266 13.2
2004-11-18 10:06:37 51°22.589 3°13.067 30.4 1.1 271 13.2
2004-11-18 10:06:42 51°22.589 3°13.066 30.4 0.6 266 13.3
2004-11-18 10:06:44 51°22.589 3°13.064 31.2 0.2 182 13
2004-11-18 10:06:56 51°22.589 3°13.06 32.6 1.1 282 12.2
2004-11-18 10:07:00 51°22.589 3°13.059 32.2 1.1 282 12.2
2004-11-18 10:07:05 51°22.589 3°13.057 30.8 0.6 275 12.4
2004-11-18 10:07:10 51°22.589 3°13.055 30.8 0.9 278 12.7
2004-11-18 10:07:16 51°22.59 3°13.053 31.2 0.9 278 13
2004-11-18 10:07:21 51°22.591 3°13.051 30.9 0.8 300 13.2
2004-11-18 10:07:26 51°22.591 3°13.049 30.3 0.8 300 13
2004-11-18 10:07:30 51°22.592 3°13.047 29.6 0.8 300 13
2004-11-18 10:07:36 51°22.593 3°13.046 30.5 1 311 13
2004-11-18 10:07:40 51°22.594 3°13.044 30.3 1.1 306 13
2004-11-18 10:07:46 51°22.595 3°13.043 30 1 329 12.8
2004-11-18 10:07:50 51°22.596 3°13.041 30 1 329 12.8
2004-11-18 10:07:56 51°22.598 3°13.04 30.1 1.2 338 12.8
2004-11-18 10:08:00 51°22.599 3°13.04 31.1 1.3 355 13
2004-11-18 10:08:06 51°22.602 3°13.039 30.9 1.3 355 12.6
2004-11-18 10:08:11 51°22.604 3°13.037 32.4 1.4 346 12.2
2004-11-18 10:08:16 51°22.605 3°13.037 35.9 1.4 342 12
2004-11-18 10:08:21 51°22.607 3°13.036 37.7 1.4 344 12.2
2004-11-18 10:08:26 51°22.608 3°13.035 39.1 1.4 344 12.4
2004-11-18 10:08:30 51°22.609 3°13.036 40.9 1.1 328 12.7
2004-11-18 10:08:34 51°22.611 3°13.034 41.9 1.5 335 12.7
2004-11-18 10:08:41 51°22.612 3°13.033 42.1 1.5 335 12.9
2004-11-18 10:08:46 51°22.613 3°13.034 42.4 1.5 335 12.8
2004-11-18 10:08:50 51°22.614 3°13.033 43.5 0.9 338 12.8
2004-11-18 10:08:54 51°22.615 3°13.032 43.9 0.5 26 12.9
2004-11-18 10:09:01 51°22.617 3°13.03 44.7 0.2 43 13
2004-11-18 10:09:06 51°22.617 3°13.031 44.4 0.7 332 12.9
2004-11-18 10:09:10 51°22.618 3°13.029 44.5 1.2 324 12.8
2004-11-18 10:09:15 51°22.619 3°13.029 46.4 0.5 329 12.8
2004-11-18 10:09:21 51°22.619 3°13.028 45.8 0.9 319 12.9
2004-11-18 10:09:23 51°22.62 3°13.027 46.8 0.9 319 13.1
2004-11-18 10:09:30 51°22.62 3°13.026 47 0.6 316 13.1
2004-11-18 10:09:36 51°22.622 3°13.025 47.6 0.9 317 12.9
2004-11-18 10:09:41 51°22.622 3°13.024 47.1 0.8 321 12.8
2004-11-18 10:09:46 51°22.623 3°13.022 47.8 0.8 321 12.8
2004-11-18 10:09:49 51°22.623 3°13.022 48.2 0.5 309 12.8
2004-11-18 10:10:04 51°22.626 3°13.017 48.5 1 314 12.8
2004-11-18 10:10:08 51°22.626 3°13.016 47.9 0.6 298 12.7
2004-11-18 10:10:14 51°22.627 3°13.014 48.8 0.8 293 12.7
2004-11-18 10:10:18 51°22.627 3°13.013 48.3 0.8 295 12.8
2004-11-18 10:10:24 51°22.627 3°13.011 48.2 0.7 290 12.9
2004-11-18 10:10:28 51°22.628 3°13.01 49 0.9 296 12.8
2004-11-18 10:10:34 51°22.628 3°13.008 49.2 0.7 293 12.9
2004-11-18 10:10:38 51°22.628 3°13.007 50.4 0.7 293 12.8
2004-11-18 10:10:44 51°22.629 3°13.005 50.6 1.1 296 12.6
2004-11-18 10:10:48 51°22.629 3°13.004 50.8 0.4 274 12.7
2004-11-18 10:10:54 51°22.629 3°13.002 50.3 0.8 288 12.7
2004-11-18 10:10:58 51°22.629 3°13.002 50.8 0.8 288 12.8
2004-11-18 10:11:03 51°22.63 3°13 51.3 1 298 12.8
2004-11-18 10:11:09 51°22.63 3°12.998 51.4 0.8 298 13
2004-11-18 10:11:14 51°22.63 3°12.997 52.3 0.7 290 13
2004-11-18 10:11:18 51°22.63 3°12.996 51.4 0.7 290 12.9
2004-11-18 10:11:22 51°22.63 3°12.995 52.8 0.6 231 12.6
2004-11-18 10:11:29 51°22.63 3°12.993 52.6 0.7 285 12.6
2004-11-18 10:11:34 51°22.631 3°12.991 51.4 0.7 286 12.5
2004-11-18 10:11:38 51°22.631 3°12.99 52.6 0.6 261 12.5
2004-11-18 10:11:44 51°22.631 3°12.988 51.9 0.9 287 12.5
2004-11-18 10:11:48 51°22.631 3°12.987 50.3 0.9 287 12.6
2004-11-18 10:11:54 51°22.631 3°12.985 52.2 0.9 292 12.8
2004-11-18 10:11:57 51°22.631 3°12.984 50.8 1 291 12.8
2004-11-18 10:12:02 51°22.631 3°12.983 50.9 0.7 263 13
2004-11-18 10:12:06 51°22.631 3°12.981 51.3 0.7 278 12.8
2004-11-18 10:12:14 51°22.632 3°12.978 50.8 0.7 278 12.9
2004-11-18 10:12:18 51°22.631 3°12.977 49.7 0.5 258 13
2004-11-18 10:12:24 51°22.632 3°12.975 49.3 1.1 275 12.7
2004-11-18 10:12:29 51°22.631 3°12.973 50.3 0.7 245 12.6
2004-11-18 10:12:44 51°22.631 3°12.968 50.8 0.8 261 12.4
2004-11-18 10:12:50 51°22.631 3°12.966 51.5 1 266 12.6
2004-11-18 10:12:55 51°22.63 3°12.964 51.5 0.7 270 13
2004-11-18 10:12:58 51°22.63 3°12.962 51.1 0.7 243 13.1
2004-11-18 10:13:04 51°22.631 3°12.96 51 0.5 247 12.8
2004-11-18 10:13:18 51°22.63 3°12.955 52.9 1.1 281 13
2004-11-18 10:13:24 51°22.63 3°12.953 52.6 1 266 13
2004-11-18 10:13:29 51°22.63 3°12.951 52.8 1 266 12.9
2004-11-18 10:13:35 51°22.63 3°12.949 52.8 0.7 260 13
2004-11-18 10:13:40 51°22.63 3°12.947 50.8 1.2 281 12.9
2004-11-18 10:13:45 51°22.63 3°12.945 50.4 0.9 266 12.9
2004-11-18 10:13:56 51°22.63 3°12.942 51.1 0.9 278 13
2004-11-18 10:14:02 51°22.631 3°12.939 51 1 291 13
2004-11-18 10:14:06 51°22.631 3°12.937 50.8 1 291 13.1
2004-11-18 10:14:12 51°22.631 3°12.935 50.8 0.8 261 13.3
2004-11-18 10:14:18 51°22.631 3°12.933 51.1 0.9 274 13.2
2004-11-18 10:14:22 51°22.631 3°12.932 50.7 0.8 263 12.9
2004-11-18 10:14:26 51°22.631 3°12.93 52 1.3 290 12.9
2004-11-18 10:14:32 51°22.631 3°12.929 52.1 1.2 280 12.9
2004-11-18 10:14:35 51°22.631 3°12.927 52.7 0.9 260 13
2004-11-18 10:14:42 51°22.631 3°12.924 52.3 1 266 12.9
2004-11-18 10:14:47 51°22.631 3°12.921 52.6 1.3 283 12.8
2004-11-18 10:14:50 51°22.63 3°12.921 53.5 0.8 230 12.9
2004-11-18 10:14:54 51°22.631 3°12.92 53.2 1.1 265 12.9
2004-11-18 10:15:09 51°22.63 3°12.914 52.5 0.9 255 12.8
2004-11-18 10:15:14 51°22.63 3°12.912 52.6 0.9 274 12.8
2004-11-18 10:15:19 51°22.629 3°12.91 52.6 1 273 12.8
2004-11-18 10:15:24 51°22.629 3°12.909 52.9 1.1 276 12.8
2004-11-18 10:15:28 51°22.629 3°12.907 53.9 1 273 12.8
2004-11-18 10:15:34 51°22.629 3°12.905 54 1 273 12.8
2004-11-18 10:15:38 51°22.629 3°12.903 55.1 0.8 259 12.8
2004-11-18 10:15:44 51°22.629 3°12.901 54.3 1 271 12.8
2004-11-18 10:15:48 51°22.628 3°12.9 55 0.8 267 12.9
2004-11-18 10:15:54 51°22.628 3°12.898 54 1 271 13.1
2004-11-18 10:16:00 51°22.628 3°12.896 54.4 0.8 269 13.2
2004-11-18 10:16:03 51°22.629 3°12.894 54.2 0.8 269 13.4
2004-11-18 10:16:08 51°22.628 3°12.893 53.5 0.8 265 13.3
2004-11-18 10:16:14 51°22.628 3°12.891 53.4 0.8 265 12.9
2004-11-18 10:16:18 51°22.628 3°12.889 54.4 0.7 265 12.7
2004-11-18 10:16:24 51°22.628 3°12.887 54.9 0.7 274 12.7
2004-11-18 10:16:28 51°22.628 3°12.885 53.8 0.9 290 12.9
2004-11-18 10:16:34 51°22.628 3°12.883 52.9 0.6 263 13
2004-11-18 10:16:38 51°22.628 3°12.882 51.7 0.6 263 13.1
2004-11-18 10:16:42 51°22.629 3°12.881 52 0.3 237 13.1
2004-11-18 10:16:49 51°22.629 3°12.879 50 0.9 289 13.1
2004-11-18 10:16:51 51°22.629 3°12.879 48.6 0.8 294 13.1
2004-11-18 10:17:00 51°22.63 3°12.877 47.4 0.8 294 13.3
2004-11-18 10:17:06 51°22.631 3°12.875 45.6 1.1 327 13.1
2004-11-18 10:17:10 51°22.632 3°12.874 44 1 343 13.1
2004-11-18 10:17:14 51°22.634 3°12.875 41.5 1.5 355 13.3
2004-11-18 10:17:44 51°22.654 3°12.869 18.3 3 346 13
2004-11-18 10:17:47 51°22.656 3°12.866 14.1 3.6 335 12.9
2004-11-18 10:17:52 51°22.661 3°12.863 7.2 3.7 333 13
2004-11-18 10:18:04 51°22.671 3°12.851 355.6 3.4 326 12.9
2004-11-18 10:18:08 51°22.674 3°12.847 351.1 3.4 326 12.8
2004-11-18 10:18:14 51°22.677 3°12.839 344.9 3.8 308 12.9
2004-11-18 10:18:18 51°22.68 3°12.834 339.4 3.9 311 12.9
2004-11-18 10:18:24 51°22.684 3°12.823 334.2 4.5 300 12.9
2004-11-18 10:18:28 51°22.687 3°12.817 327 4.3 302 13.1
2004-11-18 10:18:34 51°22.689 3°12.805 322.3 4.3 302 13.1
2004-11-18 10:18:38 51°22.691 3°12.798 315.3 4.5 292 13.1
2004-11-18 10:18:42 51°22.692 3°12.789 308.4 4.8 286 13.1
2004-11-18 10:18:49 51°22.694 3°12.772 300.8 5.7 282 13
2004-11-18 10:18:54 51°22.695 3°12.757 295.4 6.5 280 12.9
2004-11-18 10:18:59 51°22.697 3°12.741 291.7 7 278 12.9
2004-11-18 10:19:02 51°22.697 3°12.731 289.7 7.5 276 12.8
2004-11-18 10:19:08 51°22.699 3°12.71 288.1 8.3 278 12.8
2004-11-18 10:19:14 51°22.701 3°12.686 287.9 8.9 279 13
2004-11-18 10:19:18 51°22.704 3°12.669 289.4 9.5 282 12.8
2004-11-18 10:19:23 51°22.706 3°12.647 291 10.2 282 13
2004-11-18 10:19:26 51°22.708 3°12.633 291.8 10.9 284 13.1
2004-11-18 10:19:34 51°22.714 3°12.594 292.7 10.9 284 13.1
2004-11-18 10:19:38 51°22.718 3°12.574 293.6 12 286 13.5
2004-11-18 10:19:44 51°22.724 3°12.542 294.7 12.2 286 13.5
2004-11-18 10:19:48 51°22.729 3°12.521 296.2 12.7 288 12.9
2004-11-18 10:19:54 51°22.736 3°12.486 297.4 13.4 289 13.4
2004-11-18 10:19:58 51°22.741 3°12.463 299 13.8 291 13.4
2004-11-18 10:20:04 51°22.749 3°12.429 299.8 13.8 290 13.3
2004-11-18 10:20:09 51°22.755 3°12.4 299.8 13.6 288 -999
2004-11-18 10:20:15 51°22.762 3°12.365 299.7 13.8 288 -999
2004-11-18 10:20:19 51°22.768 3°12.343 298.9 14 291 13.2
2004-11-18 10:20:23 51°22.773 3°12.32 300.1 14.1 291 12.9
2004-11-18 10:20:36 51°22.792 3°12.242 301 14.4 291 13.4
2004-11-18 10:20:41 51°22.8 3°12.213 299.8 14.6 291 13.3
2004-11-18 10:20:46 51°22.807 3°12.182 300.1 14.7 291 13.7
2004-11-18 10:20:51 51°22.814 3°12.152 300 14.8 291 13.6
2004-11-18 10:20:57 51°22.824 3°12.115 300.6 14.7 292 13.2
2004-11-18 10:21:02 51°22.832 3°12.085 300.4 14.7 293 13
2004-11-18 10:21:06 51°22.838 3°12.06 300 14.7 293 13.1
2004-11-18 10:21:12 51°22.847 3°12.024 300.6 14.7 293 12.7
2004-11-18 10:21:17 51°22.855 3°11.994 299.8 14.5 293 12.7
2004-11-18 10:21:22 51°22.863 3°11.964 300.6 14.8 292 12.8
2004-11-18 10:21:27 51°22.87 3°11.934 300.9 14.8 292 12.8
2004-11-18 10:21:32 51°22.878 3°11.904 300.9 14.8 292 12.5
2004-11-18 10:21:36 51°22.884 3°11.88 300.4 14.7 291 13
2004-11-18 10:21:41 51°22.892 3°11.85 300.2 14.4 291 12.9
2004-11-18 10:21:46 51°22.899 3°11.82 299.7 14.6 291 13
2004-11-18 10:21:51 51°22.906 3°11.791 299.3 14.4 291 12.7
2004-11-18 10:21:56 51°22.914 3°11.76 299.7 14.4 292 13
2004-11-18 10:22:02 51°22.923 3°11.726 300 14.5 292 12.8
2004-11-18 10:22:06 51°22.929 3°11.703 300.8 14.4 294 12.4
2004-11-18 10:22:12 51°22.938 3°11.667 300.8 14.4 292 12.5
2004-11-18 10:22:15 51°22.943 3°11.65 301 14.3 293 12.7
2004-11-18 10:22:22 51°22.953 3°11.609 300.3 14.4 293 12.5
2004-11-18 10:22:42 51°22.982 3°11.493 300.2 14.6 293 -999
2004-11-18 10:22:49 51°22.992 3°11.453 298.7 14 291 12.8
2004-11-18 10:22:54 51°22.999 3°11.425 299.6 14 293 12.4
2004-11-18 10:22:58 51°23.005 3°11.402 299.9 14 293 12.4
2004-11-18 10:23:02 51°23.011 3°11.378 300.5 14 292 12.6
2004-11-18 10:23:09 51°23.022 3°11.338 300.6 14 292 12.5
2004-11-18 10:23:14 51°23.029 3°11.309 300 14 293 12.9
2004-11-18 10:23:28 51°23.05 3°11.228 300.7 14.2 292 13
2004-11-18 10:23:32 51°23.056 3°11.204 300.3 14 291 12.8
2004-11-18 10:23:38 51°23.064 3°11.17 300 14.3 291 12.7
2004-11-18 10:23:43 51°23.072 3°11.141 299.9 14 291 12.4
2004-11-18 10:23:46 51°23.076 3°11.123 299.7 14.3 292 12.3
2004-11-18 10:23:52 51°23.085 3°11.088 300.6 14.4 291 12.4
2004-11-18 10:23:58 51°23.093 3°11.054 300.4 14.4 291 12.3
2004-11-18 10:24:02 51°23.099 3°11.031 299.7 13.9 292 12.5
2004-11-18 10:24:08 51°23.108 3°10.995 300 13.9 292 12.9
2004-11-18 10:24:11 51°23.112 3°10.979 300.7 14.1 292 12.6
2004-11-18 10:24:26 51°23.134 3°10.891 300.3 14.2 290 12.7
2004-11-18 10:24:34 51°23.145 3°10.843 300.2 14.3 291 12.7
2004-11-18 10:24:38 51°23.151 3°10.82 299.7 14.3 291 12.6
2004-11-18 10:24:42 51°23.156 3°10.796 299.8 14.1 291 12.1
2004-11-18 10:24:46 51°23.162 3°10.773 300.6 14.1 290 -999
2004-11-18 10:24:51 51°23.169 3°10.744 299.7 14 292 12.7
2004-11-18 10:24:58 51°23.181 3°10.705 299.8 13.9 292 12.2
2004-11-18 10:25:03 51°23.189 3°10.679 304 13.6 297 12.6
2004-11-18 10:25:08 51°23.199 3°10.652 307.1 13.6 297 12.6
2004-11-18 10:25:10 51°23.203 3°10.642 309.6 13.9 301 12.6
2004-11-18 10:25:18 51°23.219 3°10.599 310.2 14 300 12.8
2004-11-18 10:25:23 51°23.23 3°10.572 310.7 14.1 302 12.9
2004-11-18 10:25:28 51°23.241 3°10.546 311.3 14.1 302 12.9
2004-11-18 10:25:32 51°23.249 3°10.525 311.3 14.1 302 13.1
2004-11-18 10:25:38 51°23.262 3°10.497 312 13.5 307 12.8
2004-11-18 10:25:43 51°23.274 3°10.474 316.5 13.5 310 12.9
2004-11-18 10:25:47 51°23.285 3°10.457 320.8 13.7 312 12.9
2004-11-18 10:25:54 51°23.304 3°10.426 324.5 13.8 314 12.8
2004-11-18 10:25:58 51°23.315 3°10.411 325.6 13.5 316 12.9
2004-11-18 10:26:59 51°23.499 3°10.201 337.3 13.6 326 13.4
2004-11-18 10:27:06 51°23.52 3°10.179 337.1 13.2 327 13.2
2004-11-18 10:27:10 51°23.533 3°10.166 338.4 13.5 327 13.3
2004-11-18 10:27:16 51°23.552 3°10.145 338.2 13.5 327 13.3
2004-11-18 10:27:21 51°23.568 3°10.129 336.8 13.5 327 13.6
2004-11-18 10:27:26 51°23.583 3°10.112 337.5 13.5 326 13.5
2004-11-18 10:27:31 51°23.599 3°10.095 337.3 13.6 326 13.4
2004-11-18 10:27:36 51°23.615 3°10.077 337 13.8 326 13.5
2004-11-18 10:27:41 51°23.63 3°10.06 337 13.8 325 13.7
2004-11-18 10:27:50 51°23.658 3°10.029 336.2 13.7 324 13.7
2004-11-18 10:28:08 51°23.714 3°9.964 336.2 14 324 13.8
2004-11-18 10:28:14 51°23.733 3°9.943 336.4 13.7 324 13.7
2004-11-18 10:28:17 51°23.742 3°9.933 336.3 13.6 325 13.9
2004-11-18 10:28:22 51°23.757 3°9.915 337.5 13.6 325 14.3
2004-11-18 10:28:28 51°23.776 3°9.894 337.7 13.6 325 14.3
2004-11-18 10:28:31 51°23.785 3°9.883 336.7 13.7 324 14.1
2004-11-18 10:28:38 51°23.807 3°9.859 337.1 13.8 325 14.4
2004-11-18 10:28:43 51°23.823 3°9.842 337 13.8 325 14.4
2004-11-18 10:28:48 51°23.838 3°9.824 337.2 13.8 325 14.7
2004-11-18 10:28:53 51°23.853 3°9.807 337.4 13.6 325 15.1
2004-11-18 10:28:58 51°23.868 3°9.79 337.3 13.6 325 14.8
2004-11-18 10:29:03 51°23.884 3°9.773 337.5 13.6 325 15.3
2004-11-18 10:29:08 51°23.899 3°9.756 337.4 13.6 325 15.7
2004-11-18 10:29:13 51°23.915 3°9.739 337.9 13.5 326 16.4
2004-11-18 10:29:18 51°23.931 3°9.722 338.3 13.7 326 16.4
2004-11-18 10:29:22 51°23.944 3°9.709 338.9 13.6 327 16.6
2004-11-18 10:29:28 51°23.963 3°9.69 338.8 13.6 327 17
2004-11-18 10:29:33 51°23.979 3°9.673 338.8 13.7 327 17.5
2004-11-18 10:29:38 51°23.995 3°9.658 338.9 13.4 328 17.2
2004-11-18 10:29:42 51°24.007 3°9.644 339.1 13.5 327 17.7
2004-11-18 10:29:48 51°24.026 3°9.623 338.2 13.6 325 17.9
2004-11-18 10:29:52 51°24.038 3°9.609 336.1 13.9 325 18
2004-11-18 10:29:58 51°24.057 3°9.588 335.3 13.4 325 18.3
2004-11-18 10:30:03 51°24.071 3°9.57 335 13.4 325 17.9
2004-11-18 10:30:06 51°24.08 3°9.558 333.6 13.4 321 18.1
2004-11-18 10:30:20 51°24.119 3°9.503 330.2 13.5 320 18.7
2004-11-18 10:30:24 51°24.129 3°9.486 328 12.6 314 19
2004-11-18 10:30:30 51°24.144 3°9.462 327.5 12.9 313 18.9
2004-11-18 10:30:35 51°24.156 3°9.441 325.7 13.1 314 18.6
2004-11-18 10:30:38 51°24.164 3°9.429 325.8 12.9 315 18.2
2004-11-18 10:30:44 51°24.179 3°9.402 325.6 13.5 312 18.1
2004-11-18 10:30:50 51°24.194 3°9.375 324.2 13.5 312 17.9
2004-11-18 10:30:54 51°24.202 3°9.355 321.6 13.5 304 18.7
2004-11-18 10:30:59 51°24.212 3°9.33 317.8 13.5 304 18.2
2004-11-18 10:31:06 51°24.223 3°9.292 311.9 13.7 298 17.7
2004-11-18 10:31:10 51°24.229 3°9.269 308 13.7 298 17.4
2004-11-18 10:31:14 51°24.234 3°9.246 301.7 13.6 290 17.8
2004-11-18 10:31:37 51°24.252 3°9.102 287.3 14.8 278 17.4
2004-11-18 10:31:42 51°24.254 3°9.07 285.4 14.7 275 17.6
2004-11-18 10:31:46 51°24.255 3°9.045 283.6 14.5 277 17
2004-11-18 10:31:51 51°24.257 3°9.013 282 14.5 276 16.7
2004-11-18 10:31:57 51°24.26 3°8.973 281.6 14.6 275 16.7
2004-11-18 10:32:02 51°24.262 3°8.941 281.2 14.7 275 16.5
2004-11-18 10:32:06 51°24.263 3°8.915 281.3 14.6 274 16.5
2004-11-18 10:32:12 51°24.265 3°8.877 280.8 14.5 275 16
2004-11-18 10:32:14 51°24.265 3°8.863 280.3 14.6 274 16.3
2004-11-18 10:32:22 51°24.268 3°8.812 280.4 14.6 274 15.7
2004-11-18 10:32:26 51°24.269 3°8.787 282.1 14.4 274 15.8
2004-11-18 10:32:30 51°24.27 3°8.762 280.5 14.3 275 15.5
2004-11-18 10:32:37 51°24.272 3°8.717 280.8 14.5 275 15.5
2004-11-18 10:32:42 51°24.273 3°8.685 280.1 14.7 274 15.4
2004-11-18 10:32:44 51°24.274 3°8.672 280.7 14.7 274 15.2
2004-11-18 10:32:52 51°24.276 3°8.621 280.8 14.7 274 15
2004-11-18 10:32:57 51°24.277 3°8.589 280.1 14.2 273 -999
2004-11-18 10:32:59 51°24.278 3°8.577 280.8 14.4 276 14.9
2004-11-18 10:33:06 51°24.28 3°8.533 280.8 14.4 276 14.4
2004-11-18 10:33:10 51°24.282 3°8.507 281.1 14.4 276 14.7
2004-11-18 10:33:18 51°24.285 3°8.457 281 14.2 275 14.4
2004-11-18 10:33:22 51°24.286 3°8.432 281 14.2 275 14.4
2004-11-18 10:33:25 51°24.287 3°8.413 280.3 14.4 276 14.3
2004-11-18 10:33:30 51°24.29 3°8.38 281 14.4 276 14.1
2004-11-18 10:33:37 51°24.292 3°8.335 282 14.6 278 14.1
2004-11-18 10:33:42 51°24.294 3°8.303 281.8 14.6 278 14.1
2004-11-18 10:33:47 51°24.296 3°8.27 281.1 14.6 276 14.1
2004-11-18 10:34:00 51°24.301 3°8.186 281.6 14.6 275 13.3
2004-11-18 10:34:04 51°24.303 3°8.161 281.6 14.9 275 13.6
2004-11-18 10:34:10 51°24.306 3°8.122 281.6 14.9 275 13.6
2004-11-18 10:34:15 51°24.307 3°8.091 282.1 14.3 275 13
2004-11-18 10:34:44 51°24.317 3°7.908 281.5 14.1 275 13
2004-11-18 10:34:47 51°24.318 3°7.889 280.9 14.1 275 12.9
2004-11-18 10:34:54 51°24.321 3°7.847 282 13.7 275 12.4
2004-11-18 10:34:58 51°24.321 3°7.822 281 14.1 275 12.7
2004-11-18 10:35:03 51°24.323 3°7.789 280.1 14.5 274 12.9
2004-11-18 10:35:08 51°24.326 3°7.758 282.2 14.1 275 13.1
2004-11-18 10:35:39 51°24.34 3°7.562 282.3 14.2 278 13
2004-11-18 10:35:49 51°24.344 3°7.498 281.6 14.2 275 12.9
2004-11-18 10:35:54 51°24.346 3°7.467 282.3 14.2 275 12.7
2004-11-18 10:35:59 51°24.348 3°7.436 281.1 13.9 275 12.2
2004-11-18 10:36:04 51°24.35 3°7.405 282.1 14 275 12.5
2004-11-18 10:36:10 51°24.352 3°7.369 281.1 13.9 278 12.2
2004-11-18 10:36:14 51°24.353 3°7.344 282.3 14 274 12.3
2004-11-18 10:36:17 51°24.354 3°7.326 281.2 14 274 12.2
2004-11-18 10:36:24 51°24.357 3°7.281 280.8 14.1 275 12.5
2004-11-18 10:36:27 51°24.358 3°7.263 282.3 14.1 275 12.5
2004-11-18 10:36:34 51°24.361 3°7.219 281.5 14 275 12.7
2004-11-18 10:36:38 51°24.363 3°7.195 281.6 14 275 12.5
2004-11-18 10:36:44 51°24.365 3°7.156 281.7 14.4 276 12.4
2004-11-18 10:36:48 51°24.367 3°7.131 282.7 14.6 276 12.4
2004-11-18 10:36:54 51°24.37 3°7.092 282.6 14.4 277 12.4
2004-11-18 10:36:58 51°24.372 3°7.067 282.8 14.4 277 12.4
2004-11-18 10:37:03 51°24.375 3°7.035 281.9 14.5 277 12.6
2004-11-18 10:37:09 51°24.377 3°6.997 282.7 14.4 275 12.6
2004-11-18 10:37:14 51°24.379 3°6.965 281.4 14.5 274 12.3
2004-11-18 10:37:19 51°24.381 3°6.934 281.2 14.3 276 12.5
2004-11-18 10:37:24 51°24.382 3°6.902 281.3 14.4 275 12.5
2004-11-18 10:37:29 51°24.384 3°6.87 281.2 14.6 276 12.2
2004-11-18 10:37:34 51°24.387 3°6.838 282.9 14.6 277 12.2
2004-11-18 10:37:39 51°24.389 3°6.805 282.7 14.5 275 12.1
2004-11-18 10:37:44 51°24.391 3°6.774 281.9 14.5 275 12.5
2004-11-18 10:37:48 51°24.392 3°6.749 281.5 14.4 275 12.4
2004-11-18 10:37:54 51°24.395 3°6.711 281.8 14.3 278 12.4
2004-11-18 10:37:58 51°24.397 3°6.686 282.4 14.4 276 12.3
2004-11-18 10:38:04 51°24.399 3°6.649 282.8 14 277 12
2004-11-18 10:38:09 51°24.402 3°6.618 282.4 14.4 274 -999
2004-11-18 10:38:14 51°24.404 3°6.586 281.7 14.4 274 11.8
2004-11-18 10:38:19 51°24.407 3°6.554 282.7 14.5 278 12.1
2004-11-18 10:38:24 51°24.409 3°6.523 283 14.4 276 12
2004-11-18 10:38:29 51°24.413 3°6.493 282.4 13.9 279 12.2
2004-11-18 10:38:34 51°24.415 3°6.461 283.4 14.1 277 12.4
2004-11-18 10:38:39 51°24.417 3°6.43 283 14.3 277 12.5
2004-11-18 10:38:44 51°24.42 3°6.398 282.3 14.5 278 12.6
2004-11-18 10:38:48 51°24.422 3°6.373 283.4 14.4 278 13
2004-11-18 10:38:54 51°24.424 3°6.335 283.1 14.4 278 13
2004-11-18 10:38:59 51°24.427 3°6.305 282.1 14 278 12.5
2004-11-18 10:39:04 51°24.428 3°6.274 282.9 14 278 12.2
2004-11-18 10:39:08 51°24.43 3°6.249 282.5 14.3 276 12.5
2004-11-18 10:39:14 51°24.433 3°6.21 281.6 14.4 274 12.9
2004-11-18 10:39:18 51°24.435 3°6.186 282.1 14.1 276 13.2
2004-11-18 10:39:24 51°24.436 3°6.148 282.7 14.2 275 13.5
2004-11-18 10:39:29 51°24.438 3°6.117 281.1 13.9 276 14.2
2004-11-18 10:39:34 51°24.44 3°6.087 282.7 13.9 276 14.2
2004-11-18 10:39:44 51°24.443 3°6.026 280.8 14.1 275 14.1
2004-11-18 10:39:50 51°24.446 3°5.988 281.7 14.1 277 14.5
2004-11-18 10:39:55 51°24.447 3°5.957 281.2 14.1 275 14.3
2004-11-18 10:39:59 51°24.449 3°5.933 282.5 14.1 277 12.6
2004-11-18 10:40:22 51°24.458 3°5.788 282.2 14.3 276 12.3
2004-11-18 10:40:30 51°24.46 3°5.738 281.1 14.4 274 12.3
2004-11-18 10:40:34 51°24.462 3°5.712 281.3 14.2 275 12.4
2004-11-18 10:40:39 51°24.465 3°5.681 281.2 14.3 276 12.5
2004-11-18 10:40:44 51°24.467 3°5.65 281.8 14.4 277 12.6
2004-11-18 10:40:47 51°24.467 3°5.63 281.9 13.9 276 12.1
2004-11-18 10:40:54 51°24.47 3°5.587 282.8 13.8 276 10.9
2004-11-18 10:40:58 51°24.472 3°5.562 281.7 13.8 276 12.1
2004-11-18 10:41:04 51°24.475 3°5.525 282.1 14 277 12.4
2004-11-18 10:41:09 51°24.477 3°5.494 283.6 14.2 277 12.6
2004-11-18 10:41:14 51°24.48 3°5.463 282.9 14.1 278 12.7
2004-11-18 10:41:18 51°24.483 3°5.437 283.8 14.4 280 13.1
2004-11-18 10:41:24 51°24.488 3°5.4 285.6 14.4 280 13.4
2004-11-18 10:41:29 51°24.492 3°5.369 287.8 14.5 281 13.2
2004-11-18 10:41:34 51°24.496 3°5.339 288.8 14.3 283 13.3
2004-11-18 10:41:39 51°24.501 3°5.308 289.9 14.2 283 13.3
2004-11-18 10:41:44 51°24.506 3°5.278 289.8 14.3 284 13
2004-11-18 10:41:49 51°24.511 3°5.247 291.2 14.3 285 13.3
2004-11-18 10:41:54 51°24.516 3°5.217 292 14.2 285 13.1
2004-11-18 10:41:56 51°24.518 3°5.204 292.4 14.2 285 13.3
2004-11-18 10:42:04 51°24.527 3°5.156 294.6 14 287 13.3
2004-11-18 10:42:10 51°24.534 3°5.121 294.7 14.4 286 13.4
2004-11-18 10:42:14 51°24.538 3°5.097 294.4 14 287 13.2
2004-11-18 10:42:17 51°24.542 3°5.079 294 13.9 288 12.8
2004-11-18 10:42:30 51°24.557 3°5.002 296.1 13.9 287 13.4
2004-11-18 10:42:36 51°24.565 3°4.966 295.9 14.2 288 13.4
2004-11-18 10:42:59 51°24.593 3°4.829 295.9 14.1 288 13.4
2004-11-18 10:43:06 51°24.601 3°4.787 295.2 14.2 288 13.4
2004-11-18 10:43:10 51°24.606 3°4.762 294.9 14.6 287 13.7
2004-11-18 10:43:14 51°24.611 3°4.738 294.8 14.2 288 13.7
2004-11-18 10:43:20 51°24.618 3°4.702 294.6 14.2 288 13.5
2004-11-18 10:43:24 51°24.622 3°4.678 295 13.9 286 14
2004-11-18 10:43:30 51°24.629 3°4.643 295 13.9 286 13.6
2004-11-18 10:43:34 51°24.633 3°4.618 293.9 14.1 288 13.5
2004-11-18 10:43:38 51°24.638 3°4.594 294.1 14.1 288 13.4
2004-11-18 10:43:50 51°24.652 3°4.523 295.5 14.1 288 13.4
2004-11-18 10:43:55 51°24.658 3°4.492 294.3 14.1 287 13.6
2004-11-18 10:44:00 51°24.663 3°4.461 293.7 14.3 287 13.8
2004-11-18 10:44:06 51°24.67 3°4.424 293.7 14.3 287 14
2004-11-18 10:44:10 51°24.674 3°4.4 292.5 14.3 287 14.2
2004-11-18 10:44:14 51°24.678 3°4.375 291.6 14.2 285 14.5
2004-11-18 10:44:19 51°24.683 3°4.345 291.8 14.2 284 14.2
2004-11-18 10:44:24 51°24.688 3°4.314 292.3 14.3 285 14.5
2004-11-18 10:44:30 51°24.693 3°4.277 290.8 14.4 282 14.5
2004-11-18 10:44:34 51°24.697 3°4.252 291.2 14.4 282 14.5
2004-11-18 10:44:40 51°24.704 3°4.216 290.9 14.4 282 14.4
2004-11-18 10:44:46 51°24.71 3°4.179 292 14.2 286 14.7
2004-11-18 10:44:50 51°24.714 3°4.154 292.3 14.3 286 14.4
2004-11-18 10:44:55 51°24.719 3°4.124 292.5 14.3 286 14.7
2004-11-18 10:45:00 51°24.724 3°4.093 291.5 14.3 284 15
2004-11-18 10:45:04 51°24.727 3°4.068 291.3 14 284 14.7
2004-11-18 10:45:10 51°24.733 3°4.032 290.7 14.1 284 14.7
2004-11-18 10:45:15 51°24.737 3°4.001 291.3 14.3 283 14.5
2004-11-18 10:45:20 51°24.742 3°3.971 291 14.3 283 14.8
2004-11-18 10:45:24 51°24.745 3°3.946 289.6 14 282 15.1
2004-11-18 10:45:30 51°24.75 3°3.909 288.8 14.3 282 15.2
2004-11-18 10:45:34 51°24.752 3°3.884 287.6 14.3 280 15
2004-11-18 10:45:39 51°24.756 3°3.852 286.7 14.4 281 15.5
2004-11-18 10:45:42 51°24.757 3°3.834 285.9 14.5 279 15.7
2004-11-18 10:45:48 51°24.761 3°3.795 285.4 14.6 278 15.8
2004-11-18 10:45:52 51°24.763 3°3.77 285.2 14.2 279 15.3
2004-11-18 10:46:06 51°24.772 3°3.682 285.4 14.3 278 15.6
2004-11-18 10:46:10 51°24.775 3°3.657 284.6 14.3 279 15.7
2004-11-18 10:46:14 51°24.777 3°3.632 284.2 14.3 278 15.1
2004-11-18 10:46:19 51°24.779 3°3.6 284.4 14 278 15.5
2004-11-18 10:46:22 51°24.78 3°3.581 283.5 13.9 277 -999
2004-11-18 10:46:30 51°24.783 3°3.534 284.2 13.9 276 15.4
2004-11-18 10:46:34 51°24.785 3°3.509 283.7 13.7 277 15.8
2004-11-18 10:46:41 51°24.789 3°3.466 284.4 13.7 277 15.8
2004-11-18 10:46:46 51°24.792 3°3.437 285.3 14.1 277 15.7
2004-11-18 10:46:51 51°24.794 3°3.406 285.3 13.8 276 14.8
2004-11-18 10:46:58 51°24.796 3°3.364 285.1 13.7 276 -999
2004-11-18 10:47:02 51°24.798 3°3.34 284.5 13.8 277 15.7
2004-11-18 10:47:07 51°24.8 3°3.309 283.9 14.1 276 15.7
2004-11-18 10:47:12 51°24.802 3°3.277 283.7 14.2 275 16.1
2004-11-18 10:47:18 51°24.804 3°3.24 282.9 14.3 276 16.1
2004-11-18 10:47:22 51°24.805 3°3.214 280.6 14.3 276 16.5
2004-11-18 10:47:26 51°24.807 3°3.189 280.8 14.3 277 16.4
2004-11-18 10:47:31 51°24.809 3°3.156 281.4 14.3 277 16.6
2004-11-18 10:47:38 51°24.811 3°3.111 280.9 14.7 274 16.6
2004-11-18 10:47:42 51°24.813 3°3.085 280.1 14.7 275 16.7
2004-11-18 10:47:46 51°24.813 3°3.059 280.2 14.5 273 16.4
2004-11-18 10:47:52 51°24.815 3°3.02 280.4 14.8 275 16.4
2004-11-18 10:47:55 51°24.816 3°3 280.1 14.7 274 16.6
2004-11-18 10:48:02 51°24.817 3°2.955 280 14.6 274 16.3
2004-11-18 10:48:06 51°24.819 3°2.93 279.5 14.5 275 16.8
2004-11-18 10:48:20 51°24.822 3°2.84 279.8 14.3 273 17.1
2004-11-18 10:48:24 51°24.823 3°2.814 280.6 14.4 274 16.9
2004-11-18 10:48:30 51°24.825 3°2.776 279.8 14.6 274 16.9
2004-11-18 10:48:35 51°24.826 3°2.744 280.1 14.2 273 17.1
2004-11-18 10:48:40 51°24.826 3°2.712 280.1 14.4 271 17
2004-11-18 10:48:46 51°24.828 3°2.674 280.2 14.5 274 17.1
2004-11-18 10:48:50 51°24.829 3°2.649 280.9 14.3 274 16.9
2004-11-18 10:48:55 51°24.831 3°2.617 280.9 14.2 274 16.8
2004-11-18 10:49:00 51°24.832 3°2.585 280.5 14.4 273 17
2004-11-18 10:49:06 51°24.835 3°2.547 280.8 14.4 276 16.8
2004-11-18 10:49:10 51°24.836 3°2.522 280.9 14.5 274 16.7
2004-11-18 10:49:15 51°24.837 3°2.489 280.4 14.5 274 17.2
2004-11-18 10:49:18 51°24.838 3°2.47 281.2 14.4 274 17.1
2004-11-18 10:49:25 51°24.84 3°2.426 280.6 14.4 274 17
2004-11-18 10:49:30 51°24.842 3°2.393 279.6 14.4 274 17.3
2004-11-18 10:49:36 51°24.843 3°2.355 280.5 14.4 274 17.7
2004-11-18 10:49:38 51°24.844 3°2.342 280.1 14.6 275 17.6
2004-11-18 10:49:44 51°24.845 3°2.304 279.9 14.5 273 17.5
2004-11-18 10:49:50 51°24.847 3°2.266 280.2 14.5 276 17.2
2004-11-18 10:49:54 51°24.849 3°2.24 280.9 14.5 276 17.1
2004-11-18 10:50:00 51°24.849 3°2.201 280.2 14.4 272 17
2004-11-18 10:50:05 51°24.851 3°2.169 279.4 14.5 273 17.1
2004-11-18 10:50:10 51°24.851 3°2.136 278.5 14.5 273 17.2
2004-11-18 10:50:15 51°24.851 3°2.104 277.1 14.6 270 17.3
2004-11-18 10:50:20 51°24.85 3°2.072 276 14.6 269 17
2004-11-18 10:50:36 51°24.848 3°1.971 274.4 14.2 268 17.1
2004-11-18 10:50:41 51°24.848 3°1.939 274.1 14.4 270 17.4
2004-11-18 10:50:46 51°24.848 3°1.907 275 14.4 269 17.5
2004-11-18 10:50:49 51°24.848 3°1.888 275.1 14.4 270 17.7
2004-11-18 10:50:56 51°24.847 3°1.842 275 14.6 268 17.7
2004-11-18 10:51:01 51°24.847 3°1.81 275 14.6 268 17.9
2004-11-18 10:51:04 51°24.846 3°1.791 274.7 14.5 268 17.4
2004-11-18 10:51:28 51°24.844 3°1.637 274.8 14.4 269 17
2004-11-18 10:51:34 51°24.844 3°1.597 274.3 14.5 270 17.2
2004-11-18 10:51:38 51°24.843 3°1.572 274.9 14.5 270 17.4
2004-11-18 10:51:42 51°24.844 3°1.546 275.8 14.5 270 17.4
2004-11-18 10:51:48 51°24.843 3°1.507 276.4 14.6 268 17.5
2004-11-18 10:51:50 51°24.843 3°1.494 275 14.5 270 17.8
2004-11-18 10:51:57 51°24.842 3°1.449 275.1 14.5 270 17.8
2004-11-18 10:52:03 51°24.843 3°1.41 275.4 14.5 270 18
2004-11-18 10:52:07 51°24.844 3°1.384 277.1 14.6 272 17.8
2004-11-18 10:52:36 51°24.857 3°1.199 284.5 14.7 277 17.3
2004-11-18 10:52:40 51°24.859 3°1.173 283.9 14.4 279 17.4
2004-11-18 10:52:46 51°24.863 3°1.135 285.3 14.4 279 17.6
2004-11-18 10:52:51 51°24.866 3°1.104 286.1 14.4 278 17.5
2004-11-18 10:52:56 51°24.868 3°1.072 285.9 14.4 278 17.2
2004-11-18 10:53:06 51°24.875 3°1.008 286.3 14.4 279 17.3
2004-11-18 10:53:20 51°24.883 3°0.919 285.4 14.6 277 17.2
2004-11-18 10:53:26 51°24.885 3°0.88 284.1 14.6 277 17.2
2004-11-18 10:53:30 51°24.887 3°0.854 282.5 14.7 275 17
2004-11-18 10:53:35 51°24.888 3°0.822 281.7 14.4 274 17
2004-11-18 10:53:40 51°24.889 3°0.79 280.4 14.6 272 17.1
2004-11-18 10:53:46 51°24.89 3°0.751 279.8 14.7 273 16.9
2004-11-18 10:53:50 51°24.891 3°0.725 280 14.5 272 17.1
2004-11-18 10:53:54 51°24.891 3°0.699 280.1 14.5 272 16.6
2004-11-18 10:54:00 51°24.892 3°0.661 278.7 14.4 273 16.7
2004-11-18 10:54:03 51°24.893 3°0.642 279.4 14.5 273 16.6
2004-11-18 10:54:10 51°24.895 3°0.597 280.2 14.5 275 16.9
2004-11-18 10:54:24 51°24.899 3°0.507 281.4 14.5 275 17
2004-11-18 10:54:26 51°24.898 3°0.494 280.3 14.3 272 16.6
2004-11-18 10:54:31 51°24.9 3°0.462 279.7 14.4 274 16.6
2004-11-18 10:55:00 51°24.907 3°0.279 280.9 14.4 273 16.9
2004-11-18 10:55:05 51°24.907 3°0.247 279.8 14.1 272 17
2004-11-18 10:55:10 51°24.909 3°0.216 280.3 14.3 273 17.2
2004-11-18 10:55:15 51°24.909 3°0.184 280.2 14.5 272 17.3
2004-11-18 10:55:20 51°24.911 3°0.152 280.3 14.3 274 17.7
2004-11-18 10:55:26 51°24.912 3°0.115 280.2 14.3 274 17.7
2004-11-18 10:55:30 51°24.913 3°0.09 281 14.3 274 17.5
2004-11-18 10:55:39 51°24.915 3°0.033 280.7 14.2 274 17.6
2004-11-18 10:55:46 51°24.916 2°59.988 280.3 14.3 271 17.2
2004-11-18 10:55:48 51°24.917 2°59.977 280.8 14.1 274 16.9
2004-11-18 10:55:59 51°24.919 2°59.907 280.7 14.2 273 17.4
2004-11-18 10:56:04 51°24.921 2°59.876 280.9 14.1 274 17.6
2004-11-18 10:56:16 51°24.924 2°59.802 281 13.9 273 17.6
2004-11-18 10:56:18 51°24.925 2°59.79 280.8 13.9 271 17.9
2004-11-18 10:56:30 51°24.927 2°59.716 279.9 14.1 272 17.7
2004-11-18 10:56:36 51°24.928 2°59.678 280.5 14.1 272 17.6
2004-11-18 10:56:40 51°24.929 2°59.653 281.2 14.1 272 17.9
2004-11-18 10:56:44 51°24.93 2°59.628 280.1 14.1 274 17.8
2004-11-18 10:56:50 51°24.931 2°59.591 280.5 14.1 274 18.1
2004-11-18 10:56:54 51°24.932 2°59.566 280.5 14.1 273 18.1
2004-11-18 10:56:58 51°24.933 2°59.542 281.3 14.1 273 18.1
2004-11-18 10:57:04 51°24.934 2°59.504 280.9 14.1 273 18.2
2004-11-18 10:57:10 51°24.935 2°59.468 280.4 13.7 273 18
2004-11-18 10:57:14 51°24.936 2°59.444 280.4 13.9 273 18.1
2004-11-18 10:57:19 51°24.938 2°59.413 281 13.7 273 18.3
2004-11-18 10:57:22 51°24.938 2°59.395 280.7 13.9 273 18.4
2004-11-18 10:57:30 51°24.94 2°59.346 280.2 13.8 275 18.5
2004-11-18 10:57:35 51°24.94 2°59.315 279.9 13.9 271 18.4
2004-11-18 10:57:40 51°24.941 2°59.284 279.4 13.9 272 18.3
2004-11-18 10:57:44 51°24.942 2°59.259 279.1 14 273 18.4
2004-11-18 10:57:49 51°24.943 2°59.228 278.6 14 273 18.6
2004-11-18 10:57:54 51°24.944 2°59.196 279.6 13.8 273 18.4
2004-11-18 10:58:00 51°24.945 2°59.16 280.1 13.8 273 18.3
2004-11-18 10:58:04 51°24.946 2°59.135 279.3 13.9 273 18.5
2004-11-18 10:58:10 51°24.947 2°59.098 279.4 14 272 18.4
2004-11-18 10:58:14 51°24.948 2°59.073 279.5 14 272 18.5
2004-11-18 10:58:19 51°24.949 2°59.042 279.9 14.1 273 18.6
2004-11-18 10:58:24 51°24.95 2°59.011 280.8 14.1 273 18.8
2004-11-18 10:58:30 51°24.951 2°58.974 280.3 14.1 274 18.9
2004-11-18 10:58:34 51°24.953 2°58.949 281.4 14 274 19
2004-11-18 10:58:40 51°24.954 2°58.912 280.8 14 274 19
2004-11-18 10:58:45 51°24.955 2°58.881 280.1 14.1 273 19.2
2004-11-18 10:58:50 51°24.955 2°58.85 279.9 14.1 273 19.1
2004-11-18 10:58:54 51°24.957 2°58.825 279.4 14.2 273 19.2
2004-11-18 10:59:03 51°24.958 2°58.769 280.4 13.9 274 19.7
2004-11-18 10:59:09 51°24.959 2°58.733 280.3 13.7 271 18.7
2004-11-18 10:59:14 51°24.96 2°58.702 279.3 14 270 18.7
2004-11-18 10:59:24 51°24.962 2°58.641 280.4 13.9 273 19.1
2004-11-18 10:59:27 51°24.963 2°58.622 280.2 14 275 19.5
2004-11-18 10:59:44 51°24.965 2°58.516 278.4 14.1 268 19.6
2004-11-18 10:59:50 51°24.965 2°58.478 275.8 14.1 268 19.8
2004-11-18 10:59:55 51°24.962 2°58.447 274.3 14.2 265 19.8
2004-11-18 11:00:44 51°24.949 2°58.139 271.7 14.2 266 20.2
2004-11-18 11:00:49 51°24.946 2°58.107 272.2 14.2 265 20.3
2004-11-18 11:01:12 51°24.939 2°57.962 273.3 14.3 266 20.6
2004-11-18 11:01:16 51°24.939 2°57.937 273.8 14.3 266 20.6
2004-11-18 11:01:22 51°24.938 2°57.901 274.3 14.3 266 20.4
2004-11-18 11:01:27 51°24.939 2°57.87 275.1 13.9 269 20.4
2004-11-18 11:01:32 51°24.939 2°57.838 277.9 14.2 269 20.5
2004-11-18 11:01:36 51°24.941 2°57.813 279.4 13.9 275 20.4
2004-11-18 11:01:42 51°24.943 2°57.777 281.8 14.1 274 20.7
2004-11-18 11:01:47 51°24.945 2°57.746 282.7 13.9 278 20.7
2004-11-18 11:02:44 51°24.984 2°57.4 286.7 14 279 22.5
2004-11-18 11:02:48 51°24.985 2°57.375 285.8 14 279 22.3
2004-11-18 11:02:52 51°24.987 2°57.35 285.8 14.2 277 22.1
2004-11-18 11:03:09 51°24.996 2°57.244 285.1 14.4 277 23
2004-11-18 11:03:13 51°24.998 2°57.218 284.8 14.4 277 23.3
2004-11-18 11:03:18 51°25.001 2°57.187 285.3 14.4 277 23.7
2004-11-18 11:03:23 51°25.003 2°57.155 285.4 14.4 277 23.9
2004-11-18 11:03:29 51°25.006 2°57.117 285.2 14.4 277 24
2004-11-18 11:03:34 51°25.009 2°57.085 285.6 14.5 278 24.6
2004-11-18 11:03:37 51°25.011 2°57.067 285.6 14.5 278 24.9
2004-11-18 11:03:43 51°25.014 2°57.029 286.9 14.4 278 24.9
2004-11-18 11:03:49 51°25.017 2°56.991 285.8 14.3 276 24.6
2004-11-18 11:03:54 51°25.019 2°56.959 285.2 14.3 276 24.8
2004-11-18 11:03:59 51°25.022 2°56.928 285.6 14.1 278 24.7
2004-11-18 11:04:20 51°25.032 2°56.796 285.7 14.3 278 24.5
2004-11-18 11:04:26 51°25.036 2°56.759 285.7 14.3 280 24.2
2004-11-18 11:04:31 51°25.038 2°56.727 285.5 14.3 280 24.6
2004-11-18 11:04:36 51°25.041 2°56.696 285.2 14.3 280 24.5
2004-11-18 11:04:52 51°25.049 2°56.595 285.7 14.3 278 24.8
2004-11-18 11:04:58 51°25.052 2°56.557 285.2 14.3 278 25.3
2004-11-18 11:05:03 51°25.054 2°56.526 285.3 14.1 276 24.9
2004-11-18 11:05:08 51°25.057 2°56.494 285.2 14.2 279 24.9
2004-11-18 11:05:13 51°25.059 2°56.463 285.9 14.4 276 25.3
2004-11-18 11:05:18 51°25.062 2°56.431 286.6 14.4 276 25.2
2004-11-18 11:05:23 51°25.065 2°56.399 286.5 14.4 276 25.5
2004-11-18 11:05:28 51°25.068 2°56.368 285.5 14.3 278 25.3
2004-11-18 11:05:32 51°25.069 2°56.343 286.1 14.4 276 25.7
2004-11-18 11:05:36 51°25.071 2°56.318 285.9 14.2 276 25.1
2004-11-18 11:05:44 51°25.075 2°56.267 285.1 14.2 278 24.9
2004-11-18 11:05:48 51°25.077 2°56.242 285.2 14.3 277 25.4
2004-11-18 11:05:52 51°25.079 2°56.217 285.7 14.3 277 24.7
2004-11-18 11:05:58 51°25.082 2°56.179 284.9 14.3 277 24.8
2004-11-18 11:06:03 51°25.084 2°56.148 285.2 14.2 279 24.5
2004-11-18 11:06:06 51°25.086 2°56.129 285.2 14.2 280 24.8
2004-11-18 11:06:11 51°25.09 2°56.098 286.2 14.2 280 24.5
2004-11-18 11:06:30 51°25.1 2°55.976 285.4 14.4 280 23.2
2004-11-18 11:06:37 51°25.103 2°55.932 285.2 14.7 277 23.1
2004-11-18 11:06:42 51°25.105 2°55.9 285.1 14.4 277 22.7
2004-11-18 11:06:44 51°25.107 2°55.887 285.9 14.5 277 22.7
2004-11-18 11:06:56 51°25.112 2°55.811 284.5 14.5 277 22
2004-11-18 11:07:00 51°25.113 2°55.785 284.6 14.9 274 21.8
2004-11-18 11:07:06 51°25.117 2°55.747 285.1 14.4 279 21.1
2004-11-18 11:07:10 51°25.118 2°55.722 285.7 14.4 279 21.2
2004-11-18 11:07:14 51°25.12 2°55.696 284.5 14.4 279 20.8
2004-11-18 11:07:21 51°25.124 2°55.652 285.6 14.4 276 20.4
2004-11-18 11:07:26 51°25.126 2°55.62 284.6 14.6 276 20.2
2004-11-18 11:07:31 51°25.128 2°55.589 285.4 14.7 278 20.1
2004-11-18 11:07:36 51°25.131 2°55.558 286.3 14 276 19.7
2004-11-18 11:07:41 51°25.133 2°55.527 284.9 14 277 19.6
2004-11-18 11:07:44 51°25.134 2°55.508 284.4 14.2 276 19.4
2004-11-18 11:07:56 51°25.14 2°55.433 285.8 13.9 277 19.5
2004-11-18 11:08:02 51°25.142 2°55.396 284.8 13.7 276 19
2004-11-18 11:08:06 51°25.144 2°55.372 284.5 14.1 275 19.1
2004-11-18 11:08:09 51°25.146 2°55.352 285 14.1 277 18.7
2004-11-18 11:08:25 51°25.154 2°55.253 284.7 14.3 278 18.8
2004-11-18 11:08:30 51°25.156 2°55.222 285.9 14.2 280 18.5
2004-11-18 11:08:35 51°25.158 2°55.191 285.4 14 276 18.7
2004-11-18 11:08:38 51°25.16 2°55.172 284.6 14 276 19.1
2004-11-18 11:08:43 51°25.163 2°55.14 285.8 13.9 276 18.8
2004-11-18 11:08:50 51°25.165 2°55.098 284.7 13.9 276 -999
2004-11-18 11:08:55 51°25.168 2°55.067 284.2 13.9 276 18.8
2004-11-18 11:09:00 51°25.171 2°55.036 285.5 14.1 278 19
2004-11-18 11:09:05 51°25.173 2°55.005 286.9 14 280 19.5
2004-11-18 11:09:10 51°25.176 2°54.975 285.9 13.9 278 19.3
2004-11-18 11:09:13 51°25.176 2°54.955 284.4 14.3 275 18.4
2004-11-18 11:09:18 51°25.179 2°54.924 283.7 14.2 278 19.1
2004-11-18 11:09:26 51°25.184 2°54.876 286.6 13.9 278 19.3
2004-11-18 11:09:34 51°25.188 2°54.824 285.5 14.4 276 19.3
2004-11-18 11:10:00 51°25.202 2°54.662 287.7 14 277 19.7
2004-11-18 11:10:06 51°25.204 2°54.623 284.9 14.7 275 19.9
2004-11-18 11:10:11 51°25.207 2°54.592 285.9 14.6 280 19.9
2004-11-18 11:10:14 51°25.209 2°54.573 287.1 14.6 280 19.6
2004-11-18 11:10:28 51°25.215 2°54.484 285.8 14.3 277 20.1
2004-11-18 11:10:34 51°25.218 2°54.447 286.3 14 278 20.3
2004-11-18 11:10:38 51°25.219 2°54.422 284.8 14.1 275 19.9
2004-11-18 11:10:42 51°25.221 2°54.396 285.3 14.4 277 20.7
2004-11-18 11:10:46 51°25.223 2°54.372 286.2 14 279 21.1
2004-11-18 11:10:53 51°25.227 2°54.33 286.1 13.7 278 21.2
2004-11-18 11:10:58 51°25.23 2°54.298 285.4 14.2 278 21.3
2004-11-18 11:11:02 51°25.232 2°54.272 286.5 14.7 278 21.4
2004-11-18 11:11:07 51°25.235 2°54.24 286.1 14.4 280 21.9
2004-11-18 11:11:11 51°25.237 2°54.216 287.1 13.9 278 21.8
2004-11-18 11:11:18 51°25.24 2°54.173 285.8 14 277 21.7
2004-11-18 11:11:22 51°25.242 2°54.148 285.1 14.3 279 21.8
2004-11-18 11:11:27 51°25.245 2°54.117 286.3 14.4 278 22
2004-11-18 11:11:33 51°25.248 2°54.08 286.6 13.8 277 21.9
2004-11-18 11:11:38 51°25.251 2°54.051 286.1 13.8 277 21.3
2004-11-18 11:11:43 51°25.253 2°54.019 284.7 13.8 277 20.8
2004-11-18 11:11:48 51°25.256 2°53.988 285.5 14.2 278 21.4
2004-11-18 11:11:52 51°25.259 2°53.963 287.8 14.1 279 20.7
2004-11-18 11:11:58 51°25.261 2°53.926 286 14.2 277 20.9
2004-11-18 11:12:02 51°25.264 2°53.901 285.4 14.3 277 20.4
2004-11-18 11:12:06 51°25.266 2°53.876 285.3 14.3 277 20.1
2004-11-18 11:12:13 51°25.27 2°53.832 285.5 14.3 277 20.3
2004-11-18 11:12:18 51°25.272 2°53.801 286.6 14.2 278 20.2
2004-11-18 11:12:20 51°25.273 2°53.788 286.1 14.2 277 19.6
2004-11-18 11:12:30 51°25.278 2°53.724 285.7 14.2 277 19.5
2004-11-18 11:12:36 51°25.281 2°53.687 285.3 14.1 277 19.5
2004-11-18 11:12:42 51°25.283 2°53.649 284.5 14.1 277 20.3
2004-11-18 11:12:46 51°25.284 2°53.624 283.7 14.1 277 21.1
2004-11-18 11:12:52 51°25.287 2°53.588 284.8 14.1 277 21.1
2004-11-18 11:12:57 51°25.29 2°53.556 285 14 278 20.8
2004-11-18 11:13:02 51°25.293 2°53.526 285 14 277 21.1
2004-11-18 11:13:06 51°25.295 2°53.501 284.7 14.1 278 21.4
2004-11-18 11:13:10 51°25.298 2°53.477 285.5 14.2 278 21.9
2004-11-18 11:13:17 51°25.301 2°53.433 285.4 14.2 278 22.3
2004-11-18 11:13:22 51°25.304 2°53.402 285.2 14 277 22.5
2004-11-18 11:13:27 51°25.306 2°53.371 285.6 14.2 277 22.8
2004-11-18 11:13:30 51°25.308 2°53.353 285.1 14.2 277 22.7
2004-11-18 11:13:35 51°25.31 2°53.321 284.8 14 276 22
2004-11-18 11:13:42 51°25.314 2°53.279 284.9 14 279 22.2
2004-11-18 11:13:46 51°25.315 2°53.253 284.2 14.2 277 23.2
2004-11-18 11:13:52 51°25.318 2°53.216 284.9 14.2 276 23.4
2004-11-18 11:13:58 51°25.322 2°53.18 285.1 14 279 23.4
2004-11-18 11:14:02 51°25.323 2°53.154 284.8 14.2 277 23.4
2004-11-18 11:14:07 51°25.327 2°53.123 285.7 14 279 23.7
2004-11-18 11:14:10 51°25.328 2°53.105 285.9 14 277 24
2004-11-18 11:14:18 51°25.332 2°53.055 285 14 277 23.8
2004-11-18 11:14:22 51°25.334 2°53.03 285.7 14 277 23.8
2004-11-18 11:14:24 51°25.335 2°53.017 285.3 14.2 278 23.7
2004-11-18 11:14:31 51°25.338 2°52.973 284.7 14.3 276 23.8
2004-11-18 11:14:37 51°25.341 2°52.935 284.8 14.1 276 23.9
2004-11-18 11:14:42 51°25.342 2°52.904 284.7 14.3 276 23.7
2004-11-18 11:14:46 51°25.344 2°52.879 284 14.3 276 23.9
2004-11-18 11:15:04 51°25.353 2°52.766 285.1 14.3 276 24
2004-11-18 11:15:23 51°25.362 2°52.645 285.6 14.4 277 23.8
2004-11-18 11:15:30 51°25.365 2°52.6 284.8 14.4 277 23.7
2004-11-18 11:15:34 51°25.367 2°52.575 284.7 14.3 277 24
2004-11-18 11:15:39 51°25.37 2°52.544 285.5 14.3 277 24.3
2004-11-18 11:15:44 51°25.372 2°52.513 284.9 14.3 276 24
2004-11-18 11:15:56 51°25.378 2°52.438 285.6 14.1 277 23.8
2004-11-18 11:15:58 51°25.379 2°52.426 285.1 14.2 276 24.1
2004-11-18 11:16:06 51°25.382 2°52.375 285.2 14.3 277 24.5
2004-11-18 11:16:11 51°25.385 2°52.344 285.3 14.3 277 25
2004-11-18 11:16:14 51°25.386 2°52.325 284.8 14.2 277 25.4
2004-11-18 11:16:21 51°25.39 2°52.281 285.5 14.3 279 25.9
2004-11-18 11:16:25 51°25.392 2°52.257 286.3 13.7 276 26.4
2004-11-18 11:16:30 51°25.395 2°52.227 286.1 13.7 276 26.3
2004-11-18 11:16:35 51°25.396 2°52.197 285.3 13.7 276 26.4
2004-11-18 11:16:52 51°25.403 2°52.092 285.1 14.1 275 25.9
2004-11-18 11:16:58 51°25.406 2°52.054 284.5 14.1 275 26
2004-11-18 11:17:03 51°25.41 2°52.023 285.5 14.3 279 26.4
2004-11-18 11:17:08 51°25.412 2°51.992 285.9 14.2 278 27.4
2004-11-18 11:17:13 51°25.415 2°51.961 286.3 14.1 278 27.3
2004-11-18 11:17:18 51°25.417 2°51.929 286 14.3 278 26.8
2004-11-18 11:17:22 51°25.42 2°51.904 285.7 14.2 278 26.1
2004-11-18 11:17:28 51°25.422 2°51.866 285.8 14.3 277 25.7
2004-11-18 11:17:32 51°25.424 2°51.841 285.5 14.4 277 25.5
2004-11-18 11:17:38 51°25.428 2°51.804 285.8 14.4 276 25
2004-11-18 11:17:43 51°25.43 2°51.771 285.3 14.6 278 24.7
2004-11-18 11:17:48 51°25.433 2°51.74 285.3 14.6 278 24.7
2004-11-18 11:17:52 51°25.434 2°51.714 285.9 14.2 277 24.3
2004-11-18 11:17:58 51°25.438 2°51.676 285.8 14.5 278 24.1
2004-11-18 11:18:03 51°25.44 2°51.644 285.2 14.5 278 24.1
2004-11-18 11:18:07 51°25.442 2°51.618 285.2 14.5 277 23.8
2004-11-18 11:18:10 51°25.443 2°51.599 285 14.6 279 23.8
2004-11-18 11:18:17 51°25.448 2°51.555 286.1 14.6 279 24.1
2004-11-18 11:18:23 51°25.452 2°51.517 288.5 14.6 279 23.9
2004-11-18 11:18:26 51°25.455 2°51.499 289.1 14.6 279 23.8
2004-11-18 11:18:32 51°25.461 2°51.462 291.5 14.2 283 23.5
2004-11-18 11:18:38 51°25.467 2°51.425 292.2 14.4 285 23.6
2004-11-18 11:18:42 51°25.47 2°51.4 292 14.2 284 23.3
2004-11-18 11:18:47 51°25.475 2°51.369 292.9 14.2 284 23.2
2004-11-18 11:18:54 51°25.481 2°51.327 292.3 14 282 23.4
2004-11-18 11:18:58 51°25.484 2°51.303 293.1 13.9 284 23.5
2004-11-18 11:19:03 51°25.488 2°51.272 291.5 14.1 283 23.3
2004-11-18 11:19:08 51°25.493 2°51.242 292.5 14 285 23.7
2004-11-18 11:19:13 51°25.497 2°51.212 293.3 13.8 282 23.3
2004-11-18 11:19:18 51°25.502 2°51.181 291.9 14.1 282 23.4
2004-11-18 11:19:22 51°25.506 2°51.158 292.5 13.9 285 23.8
2004-11-18 11:19:28 51°25.511 2°51.121 292.5 14.1 283 23.4
2004-11-18 11:19:33 51°25.516 2°51.091 291.9 14.1 285 23.7
2004-11-18 11:19:38 51°25.52 2°51.06 293.3 14.1 283 23.9
2004-11-18 11:19:42 51°25.523 2°51.035 292.4 14.4 284 23.9
2004-11-18 11:19:47 51°25.528 2°51.004 292.5 14.2 284 24
2004-11-18 11:19:53 51°25.534 2°50.968 293.8 14.1 283 23.7
2004-11-18 11:19:55 51°25.535 2°50.955 292.2 14.3 283 23.8
2004-11-18 11:20:02 51°25.543 2°50.913 292.9 14.2 286 23.6
2004-11-18 11:20:08 51°25.548 2°50.875 292.6 14.4 282 23.9
2004-11-18 11:20:12 51°25.551 2°50.85 291.9 14.4 282 23.9
2004-11-18 11:20:18 51°25.557 2°50.813 293.2 14.4 282 23.9
2004-11-18 11:20:22 51°25.56 2°50.788 292.6 14.4 282 24
2004-11-18 11:20:26 51°25.565 2°50.763 293.1 14.5 283 23.8
2004-11-18 11:20:32 51°25.57 2°50.726 292.6 14.5 284 23.7
2004-11-18 11:20:38 51°25.576 2°50.688 293 14.5 284 23.9
2004-11-18 11:20:44 51°25.581 2°50.65 293 14.5 285 23.9
2004-11-18 11:20:48 51°25.585 2°50.625 293.2 14.5 285 23.9
2004-11-18 11:20:52 51°25.589 2°50.601 292.6 14.4 285 23.8
2004-11-18 11:20:58 51°25.594 2°50.563 292.3 14.4 284 24.2
2004-11-18 11:21:04 51°25.599 2°50.526 293 14.2 282 24.2
2004-11-18 11:21:08 51°25.604 2°50.501 292.8 14.2 283 23.5
2004-11-18 11:21:13 51°25.608 2°50.471 292.1 14.1 283 23.2
2004-11-18 11:21:15 51°25.61 2°50.458 291.4 14.1 283 23.4
2004-11-18 11:21:22 51°25.617 2°50.415 291.8 14.2 284 23.7
2004-11-18 11:21:28 51°25.622 2°50.379 293.1 14.3 283 23.4
2004-11-18 11:21:32 51°25.626 2°50.355 292.3 14 283 23.3
2004-11-18 11:21:38 51°25.632 2°50.318 292.6 14 283 23.3
2004-11-18 11:21:41 51°25.634 2°50.3 292.5 14 284 23.8
2004-11-18 11:21:46 51°25.639 2°50.27 292.5 14.1 284 23.3
2004-11-18 11:21:52 51°25.645 2°50.233 292.4 14.2 284 23.5
2004-11-18 11:21:56 51°25.649 2°50.209 292.8 14.1 284 23.6
2004-11-18 11:22:02 51°25.654 2°50.172 292.8 14.4 283 23.7
2004-11-18 11:22:12 51°25.662 2°50.11 292.5 14.1 282 23.5
2004-11-18 11:22:18 51°25.668 2°50.074 291.9 14.2 284 23
2004-11-18 11:22:22 51°25.672 2°50.049 292.1 14.2 283 22.9
2004-11-18 11:22:28 51°25.677 2°50.012 291.7 14.2 283 22.9
2004-11-18 11:22:32 51°25.681 2°49.987 291.8 14.4 283 23
2004-11-18 11:22:38 51°25.688 2°49.951 292 14.3 286 23.2
2004-11-18 11:22:42 51°25.691 2°49.926 292.8 14.3 283 23.1
2004-11-18 11:22:47 51°25.696 2°49.895 292.5 14.3 284 23.2
2004-11-18 11:22:50 51°25.699 2°49.876 292.4 14.3 284 23.3
2004-11-18 11:22:55 51°25.704 2°49.845 292.9 14.5 284 23.4
2004-11-18 11:23:00 51°25.709 2°49.814 293.2 14.4 284 23.5
2004-11-18 11:23:12 51°25.722 2°49.74 293.5 14.4 284 23.5
2004-11-18 11:23:17 51°25.727 2°49.71 294.6 14.4 284 23.7
2004-11-18 11:23:22 51°25.732 2°49.679 293.9 14.3 287 23.2
2004-11-18 11:23:26 51°25.737 2°49.656 294.3 13.7 287 23.8
2004-11-18 11:23:30 51°25.74 2°49.631 294.1 13.9 283 24.1
2004-11-18 11:23:35 51°25.746 2°49.602 295 14 289 23.5
2004-11-18 11:23:42 51°25.753 2°49.559 294.9 14.3 285 23.7
2004-11-18 11:23:46 51°25.758 2°49.535 294.8 14.1 287 23.9
2004-11-18 11:23:52 51°25.764 2°49.498 295.1 14.1 285 23.8
2004-11-18 11:23:58 51°25.771 2°49.462 294.6 14.4 287 23.8
2004-11-18 11:24:02 51°25.774 2°49.437 294.5 14.4 287 23.7
2004-11-18 11:24:06 51°25.778 2°49.413 294.8 14.3 285 23.4
2004-11-18 11:24:12 51°25.785 2°49.376 294.6 14 285 -999
2004-11-18 11:24:18 51°25.79 2°49.34 294.9 14 287 23.5
2004-11-18 11:24:22 51°25.795 2°49.316 294.6 14.3 287 23.6
2004-11-18 11:24:27 51°25.8 2°49.287 294.6 14.2 285 23.5
2004-11-18 11:24:30 51°25.804 2°49.269 295 14 287 23.9
2004-11-18 11:24:37 51°25.811 2°49.227 295.6 14 287 24
2004-11-18 11:24:42 51°25.817 2°49.197 295 14 287 24.2
2004-11-18 11:24:44 51°25.819 2°49.185 295.7 14 286 24.5
2004-11-18 11:24:50 51°25.825 2°49.148 294 14.4 286 24.7
2004-11-18 11:24:56 51°25.832 2°49.111 294.6 14.4 285 25.1
2004-11-18 11:25:02 51°25.838 2°49.075 294.3 14.3 285 25.1
2004-11-18 11:25:06 51°25.841 2°49.051 294.1 14.1 283 24.3
2004-11-18 11:25:12 51°25.847 2°49.014 292.3 14.2 285 24.8
2004-11-18 11:25:17 51°25.853 2°48.983 293.4 14.2 285 24.6
2004-11-18 11:25:23 51°25.859 2°48.947 294.5 14.2 286 24.6
2004-11-18 11:25:26 51°25.862 2°48.928 294.2 14.4 286 24.6
2004-11-18 11:25:31 51°25.868 2°48.898 294 14.5 287 24.6
2004-11-18 11:25:34 51°25.871 2°48.88 294.6 13.5 285 24.8
2004-11-18 11:25:52 51°25.887 2°48.783 294.3 11.7 284 24.2
2004-11-18 11:25:58 51°25.89 2°48.754 294.3 11.3 283 24.7
2004-11-18 11:26:00 51°25.891 2°48.745 293.9 10.6 283 24.7
2004-11-18 11:26:06 51°25.895 2°48.719 294 10 280 23.9
2004-11-18 11:26:10 51°25.898 2°48.702 293.3 10 283 23.8
2004-11-18 11:26:24 51°25.911 2°48.65 305 8.4 301 24.5
2004-11-18 11:26:30 51°25.919 2°48.633 314.3 8.1 307 24.8
2004-11-18 11:26:34 51°25.926 2°48.624 323.3 8.1 307 25
2004-11-18 11:26:40 51°25.935 2°48.614 332.2 6.8 323 24.9
2004-11-18 11:26:45 51°25.942 2°48.608 339.7 6.4 329 24.4
2004-11-18 11:26:50 51°25.951 2°48.604 347.4 6.3 340 24.2
2004-11-18 11:26:55 51°25.959 2°48.6 354.3 6.3 345 24.3
2004-11-18 11:26:58 51°25.964 2°48.599 359.1 6.3 345 24.3
2004-11-18 11:27:06 51°25.978 2°48.598 5.4 5.9 355 24.8
2004-11-18 11:27:10 51°25.984 2°48.599 8.4 5.9 355 24.8
2004-11-18 11:27:14 51°25.99 2°48.598 10.8 5.9 355 25.1
2004-11-18 11:27:19 51°25.996 2°48.599 12.9 5.9 355 25.2
2004-11-18 11:27:25 51°26.004 2°48.6 14.4 4.1 6 25
2004-11-18 11:27:30 51°26.009 2°48.599 14.2 4.1 6 24.5
2004-11-18 11:27:34 51°26.013 2°48.599 13.7 4.1 6 24.7
2004-11-18 11:27:40 51°26.018 2°48.6 14.1 2.9 1 24.3
2004-11-18 11:27:45 51°26.021 2°48.6 16 2.5 3 24.5
2004-11-18 11:27:50 51°26.024 2°48.601 19.2 2.5 3 24.8
2004-11-18 11:27:54 51°26.025 2°48.601 23.5 1.7 9 24.7
2004-11-18 11:27:58 51°26.027 2°48.602 26.9 1.4 24 24.4
2004-11-18 11:28:19 51°26.031 2°48.604 42.5 0.4 318 24.6
2004-11-18 11:28:26 51°26.03 2°48.605 46.3 0.4 119 24.5
2004-11-18 11:28:30 51°26.03 2°48.605 49.2 0.4 119 24.6
2004-11-18 11:28:34 51°26.03 2°48.605 50.9 0.4 119 24.5
2004-11-18 11:28:40 51°26.029 2°48.606 52.6 0.2 155 24.6
2004-11-18 11:28:46 51°26.029 2°48.607 54.4 0.2 155 24.6
2004-11-18 11:28:50 51°26.029 2°48.607 55 0.2 155 24.6
2004-11-18 11:28:55 51°26.028 2°48.608 55.5 0.5 146 24.6
2004-11-18 11:28:58 51°26.028 2°48.608 55.4 0.7 147 24.7
2004-11-18 11:29:20 51°26.025 2°48.609 54.3 0.5 179 24.5
2004-11-18 11:29:25 51°26.024 2°48.609 53.4 0.5 202 24.1
2004-11-18 11:29:30 51°26.023 2°48.609 55.3 0.6 166 24.2
2004-11-18 11:29:34 51°26.023 2°48.61 53.3 0.6 166 24.4
2004-11-18 11:29:40 51°26.022 2°48.609 53 0.6 166 24.4
2004-11-18 11:29:46 51°26.021 2°48.61 52.5 0.9 169 24.7
2004-11-18 11:29:50 51°26.02 2°48.61 51.5 0.6 186 24.8
2004-11-18 11:29:56 51°26.019 2°48.609 50.9 1 154 24.7
2004-11-18 11:30:00 51°26.018 2°48.609 51.3 0.9 195 24.4
2004-11-18 11:30:06 51°26.018 2°48.607 50.3 0.8 203 24.5
2004-11-18 11:30:10 51°26.016 2°48.608 48.3 0.8 203 24.8
2004-11-18 11:30:30 51°26.013 2°48.605 44.6 0.8 231 24.7
2004-11-18 11:30:48 51°26.009 2°48.602 42.3 0.8 231 24.7
2004-11-18 11:30:52 51°26.007 2°48.603 42.2 0.8 231 24.8
2004-11-18 11:30:58 51°26.007 2°48.601 41 1.1 252 24.7
2004-11-18 11:31:00 51°26.006 2°48.601 40.2 0.7 216 24.4
2004-11-18 11:31:24 51°26.001 2°48.598 40.1 0.9 196 24.6
2004-11-18 11:31:30 51°26 2°48.596 38.7 1.1 235 24.4
2004-11-18 11:31:35 51°25.998 2°48.595 38.6 0.9 197 24.3
2004-11-18 11:31:38 51°25.998 2°48.596 39.9 0.9 197 24.6
2004-11-18 11:31:54 51°25.994 2°48.593 40.5 0.9 197 24.7
2004-11-18 11:31:56 51°25.993 2°48.593 41.2 0.9 197 24.6
2004-11-18 11:32:02 51°25.992 2°48.592 40.7 1 206 24.9
2004-11-18 11:32:27 51°25.986 2°48.587 42.6 0.9 227 24.8
2004-11-18 11:32:34 51°25.985 2°48.587 43 0.9 240 24.8
2004-11-18 11:32:38 51°25.984 2°48.586 42.6 0.9 227 24.8
2004-11-18 11:32:42 51°25.983 2°48.585 42.6 0.7 221 25
2004-11-18 11:32:48 51°25.982 2°48.585 42 0.7 221 24.9
2004-11-18 11:32:51 51°25.981 2°48.585 40.2 0.7 229 24.8
2004-11-18 11:32:58 51°25.98 2°48.584 41 1 179 24.7
2004-11-18 11:33:04 51°25.979 2°48.582 40.7 1 179 24.7
2004-11-18 11:33:08 51°25.978 2°48.582 41.9 1 179 24.3
2004-11-18 11:33:11 51°25.977 2°48.582 41.6 0.7 234 24.2
2004-11-18 11:33:18 51°25.976 2°48.581 40.6 0.8 197 24.9
2004-11-18 11:33:22 51°25.975 2°48.58 39.5 0.7 172 25.1
2004-11-18 11:33:28 51°25.974 2°48.579 37.8 0.8 210 24.8
2004-11-18 11:33:34 51°25.973 2°48.579 37.4 0.6 224 24.4
2004-11-18 11:33:36 51°25.973 2°48.579 38.3 0.7 192 24.5
2004-11-18 11:33:42 51°25.972 2°48.578 38.1 0.9 221 25
2004-11-18 11:34:16 51°25.965 2°48.574 36.8 0.8 177 24.9
2004-11-18 11:34:20 51°25.964 2°48.573 35.3 0.7 206 24.8
2004-11-18 11:34:26 51°25.963 2°48.571 35.5 1 230 24.6
2004-11-18 11:34:31 51°25.962 2°48.571 36.1 0.7 195 24.3
2004-11-18 11:34:36 51°25.961 2°48.57 36.2 0.7 195 24.4
2004-11-18 11:34:41 51°25.96 2°48.569 35.5 0.9 216 24.3
2004-11-18 11:34:44 51°25.959 2°48.57 36 0.9 186 24.5
2004-11-18 11:34:50 51°25.958 2°48.569 36.6 0.7 171 24.5
2004-11-18 11:34:54 51°25.958 2°48.568 35.7 0.7 194 24.3
2004-11-18 11:35:01 51°25.956 2°48.569 37.3 0.6 230 24.4
2004-11-18 11:35:06 51°25.956 2°48.568 37.4 0.5 238 24.6
2004-11-18 11:35:10 51°25.956 2°48.567 36.7 0.5 238 24.7
2004-11-18 11:35:16 51°25.955 2°48.567 36.3 0.3 209 25
2004-11-18 11:35:20 51°25.956 2°48.567 34.4 0.3 209 25
2004-11-18 11:35:24 51°25.956 2°48.567 32.5 0.3 209 25.1
2004-11-18 11:35:30 51°25.957 2°48.567 29.3 0.7   24.7
2004-11-18 11:36:02 51°25.969 2°48.558 357.9 1.1 350 24.4
2004-11-18 11:36:04 51°25.97 2°48.556 352.9 2.2 312 24.6
2004-11-18 11:36:16 51°25.976 2°48.545 340.1 2.4 313 24.6
2004-11-18 11:36:20 51°25.977 2°48.539 334.5 3.5 297 24.3
2004-11-18 11:36:26 51°25.98 2°48.531 325 3.7 295 24.3
2004-11-18 11:36:30 51°25.981 2°48.524 319.3 4.2 282 24.3
2004-11-18 11:36:36 51°25.982 2°48.513 309 3.9 282 23.7
2004-11-18 11:36:42 51°25.982 2°48.501 301.3 4.6 274 23.8
2004-11-18 11:36:44 51°25.981 2°48.496 293.3 4.7 264 24
2004-11-18 11:37:10 51°25.965 2°48.437 246.7 4.8 269 23.7
2004-11-18 11:37:17 51°25.957 2°48.422 239.2 -999 -999 23.8
2004-11-18 11:37:20 51°25.952 2°48.417 231.2 6.6 224 23.6
2004-11-18 11:37:26 51°25.943 2°48.404 222.9 7.1 220 23.8
2004-11-18 11:37:32 51°25.932 2°48.395 218.4 7.2 213 24.4
2004-11-18 11:37:37 51°25.923 2°48.386 216.1 7.8 212 24.7
2004-11-18 11:37:42 51°25.914 2°48.376 214.2 7.9 213 24.6
2004-11-18 11:37:46 51°25.906 2°48.368 211 8.4 210 24.4
2004-11-18 11:37:52 51°25.892 2°48.356 210.6 9.3 212 24.7
2004-11-18 11:37:55 51°25.885 2°48.349 210.7 9.8 215 24.7
2004-11-18 11:38:02 51°25.867 2°48.332 211.3 10.8 209 24.7
2004-11-18 11:38:08 51°25.852 2°48.315 211.8 11.3 208 24.5
2004-11-18 11:38:09 51°25.849 2°48.312 214.1 11 211 24.4
2004-11-18 11:38:23 51°25.811 2°48.275 215.9 11.6 214 24.2
2004-11-18 11:38:28 51°25.798 2°48.256 215.6 12.1 220 24.1
2004-11-18 11:38:32 51°25.786 2°48.243 218.2 12.5 215 24.1
2004-11-18 11:38:39 51°25.767 2°48.217 218.3 13 214 24.3
2004-11-18 11:38:44 51°25.752 2°48.199 222.3 13 214 23.9
2004-11-18 11:38:49 51°25.738 2°48.177 220 14 217 24.2
2004-11-18 11:38:54 51°25.723 2°48.158 225 13.9 229 24.1
2004-11-18 11:38:58 51°25.711 2°48.141 222.6 14.5 218 24.2
2004-11-18 11:39:03 51°25.697 2°48.119 225.6 14.1 221 24
2004-11-18 11:39:10 51°25.676 2°48.087 223.5 14.7 216 24.2
2004-11-18 11:39:14 51°25.664 2°48.07 225.7 14.7 216 24.2
2004-11-18 11:39:18 51°25.65 2°48.054 224.4 14.7 223 24.4
2004-11-18 11:39:22 51°25.64 2°48.034 224.1 14.7 227 24.2
2004-11-18 11:39:29 51°25.618 2°48.004 224.4 15 222 24.1
2004-11-18 11:39:53 51°25.545 2°47.897 224 14.9 224 24.4
2004-11-18 11:39:58 51°25.529 2°47.876 224.7 14.6 221 24.6
2004-11-18 11:40:02 51°25.517 2°47.858 222.4 14.9 224 25.1
2004-11-18 11:40:07 51°25.502 2°47.835 223.9 14.8 226 25.6
2004-11-18 11:40:13 51°25.482 2°47.81 223.4 15.1 219 26.4
2004-11-18 11:40:15 51°25.477 2°47.8 223.8 14.5 228 26.2
2004-11-18 11:40:48 51°25.374 2°47.657 223.2 15 222 26.2
2004-11-18 11:40:54 51°25.357 2°47.63 225 14.8 225 26.9
2004-11-18 11:40:57 51°25.347 2°47.618 225 15.3 218 27.5
2004-11-18 11:41:03 51°25.33 2°47.588 224 15.3 218 27.7
2004-11-18 11:41:07 51°25.316 2°47.573 225.4 14.9 221 27.6
2004-11-18 11:41:12 51°25.302 2°47.546 224.1 15.1 227 27.1
2004-11-18 11:41:18 51°25.283 2°47.521 225.5 15 220 27
2004-11-18 11:41:22 51°25.272 2°47.503 224.3 15 220 27.7
2004-11-18 11:41:28 51°25.252 2°47.477 224.8 15 220 26.8
2004-11-18 11:41:32 51°25.24 2°47.457 221.7 15.1 229 25.8
2004-11-18 11:41:46 51°25.199 2°47.393 227.1 14.6 224 25.5
2004-11-18 11:41:54 51°25.173 2°47.359 222 15.2 215 25.4
2004-11-18 11:42:03 51°25.144 2°47.321 224.1 15.4 216 25.8
2004-11-18 11:42:08 51°25.131 2°47.296 225.2 14.4 221 25.8
2004-11-18 11:42:14 51°25.112 2°47.272 223 14.4 221 25.7
2004-11-18 11:42:18 51°25.099 2°47.254 222.3 14.9 223 25.7
2004-11-18 11:42:35 51°25.047 2°47.178 220.6 15.2 225 26.5
2004-11-18 11:42:40 51°25.032 2°47.158 224.1 14.4 219 26.2
2004-11-18 11:42:45 51°25.016 2°47.135 223.6 14.4 219 26.5
2004-11-18 11:42:51 51°24.998 2°47.109 222.4 15.1 221 27.1
2004-11-18 11:42:54 51°24.988 2°47.096 222.1 15.1 221 27.3
2004-11-18 11:43:01 51°24.967 2°47.065 223.2 15.1 221 27.3
2004-11-18 11:43:06 51°24.95 2°47.043 221.6 15.4 218 27.6
2004-11-18 11:43:10 51°24.939 2°47.023 223.6 15.2 226 27.8
2004-11-18 11:43:15 51°24.922 2°47.004 223 15.1 222 28.4
2004-11-18 11:43:20 51°24.908 2°46.98 222.6 15.4 222 28.6
2004-11-18 11:43:23 51°24.898 2°46.967 223.8 15.3 222 29.1
2004-11-18 11:44:12 51°24.745 2°46.749 221.3 -999 -999 28.7
2004-11-18 11:44:17 51°24.731 2°46.724 221.4 15.3 227 28.6
2004-11-18 11:44:22 51°24.715 2°46.703 225.1 14.7 221 29.9
2004-11-18 11:44:27 51°24.701 2°46.679 223.7 14.9 224 30.4
2004-11-18 11:44:30 51°24.691 2°46.666 224.2 15.1 224 30
2004-11-18 11:45:28 51°24.509 2°46.413 223 -999 -999 28.4
2004-11-18 11:45:34 51°24.492 2°46.382 221.7 -999 -999 27.4